Time;durP1;ratioP1;P1;durP2;ratioP2;P2;SDS_P1;SDS_P2;PMS_P1;PMS_P2;Temp;Humidity;BMP_temperature;BMP_pressure;BME280_temperature;BME280_humidity;BME280_pressure;Samples;Min_cycle;Max_cycle;Signal;HPM_P1;HPM_P2
2022/01/26 00:07:12;;;;;;;50.40;20.40;;;4.70;99.90;;;;;;4975404;28;20147;-75
2022/01/26 00:09:38;;;;;;;39.47;19.35;;;4.70;99.90;;;;;;4975351;28;20043;-75
2022/01/26 00:12:04;;;;;;;38.75;18.80;;;4.70;99.90;;;;;;4975521;28;20162;-75
2022/01/26 00:14:29;;;;;;;42.60;20.48;;;4.70;99.90;;;;;;4975842;28;20022;-74
2022/01/26 00:16:55;;;;;;;39.80;20.30;;;4.70;99.90;;;;;;4975521;28;20027;-75
2022/01/26 00:19:28;;;;;;;38.53;18.95;;;4.80;99.90;;;;;;4975172;28;20015;-76
2022/01/26 00:21:56;;;;;;;44.35;18.60;;;4.80;99.90;;;;;;4975441;28;20031;-73
2022/01/26 00:29:38;;;;;;;52.55;23.02;;;4.70;99.90;;;;;;4974763;28;20023;-74
2022/01/26 00:43:08;;;;;;;53.63;25.63;;;4.40;99.90;;;;;;4975115;28;20086;-74
2022/01/26 00:45:36;;;;;;;49.85;25.17;;;4.40;99.90;;;;;;4975053;28;20034;-75
2022/01/26 00:48:05;;;;;;;56.72;27.13;;;4.40;99.90;;;;;;4975213;28;20074;-74
2022/01/26 00:50:33;;;;;;;54.92;25.73;;;4.40;99.90;;;;;;4974685;28;20023;-75
2022/01/26 00:52:59;;;;;;;57.92;28.00;;;4.30;99.90;;;;;;4974554;28;20019;-74
2022/01/26 00:55:25;;;;;;;61.80;28.63;;;4.40;99.90;;;;;;4974904;28;20026;-75
2022/01/26 00:57:51;;;;;;;56.30;27.38;;;4.40;99.90;;;;;;4974868;28;20429;-74
2022/01/26 01:00:24;;;;;;;57.03;26.95;;;4.30;99.90;;;;;;4974569;28;20102;-74
2022/01/26 01:02:51;;;;;;;58.90;26.35;;;4.30;99.90;;;;;;4956953;28;20022;-76
2022/01/26 01:08:18;;;;;;;49.35;24.50;;;4.30;99.90;;;;;;4931384;28;20042;-75
2022/01/26 01:10:46;;;;;;;48.15;23.40;;;4.30;99.90;;;;;;4974691;28;20023;-74
2022/01/26 01:13:17;;;;;;;50.65;23.85;;;4.30;99.90;;;;;;4974318;28;20059;-75
2022/01/26 01:15:44;;;;;;;49.42;24.02;;;4.30;99.90;;;;;;4974698;28;20027;-75
2022/01/26 01:18:39;;;;;;;44.05;22.05;;;4.30;99.90;;;;;;4974399;28;20018;-74
2022/01/26 01:21:28;;;;;;;46.55;23.58;;;4.30;99.90;;;;;;4973832;28;20093;-76
2022/01/26 01:24:25;;;;;;;49.22;24.23;;;4.20;99.90;;;;;;4974112;28;20103;-74
2022/01/26 01:27:24;;;;;;;46.38;22.70;;;4.20;99.90;;;;;;4956967;28;20030;-73
2022/01/26 01:30:29;;;;;;;49.03;21.70;;;4.30;99.90;;;;;;4974872;28;20031;-74
2022/01/26 01:35:27;;;;;;;47.25;22.10;;;4.20;99.90;;;;;;4974509;28;20512;-75
2022/01/26 01:37:53;;;;;;;56.88;24.95;;;4.20;99.90;;;;;;4975990;28;20029;-74
2022/01/26 01:40:19;;;;;;;46.20;23.73;;;4.20;99.90;;;;;;4978070;28;20019;-74
2022/01/26 01:42:44;;;;;;;53.45;24.63;;;4.30;99.90;;;;;;4978337;28;20026;-74
2022/01/26 01:45:10;;;;;;;54.25;25.20;;;4.20;99.90;;;;;;4977989;28;20027;-75
2022/01/26 01:47:36;;;;;;;50.90;24.13;;;4.30;99.90;;;;;;4960716;28;20135;-75
2022/01/26 01:50:07;;;;;;;48.05;23.20;;;4.30;99.90;;;;;;4978200;28;20029;-75
2022/01/26 01:52:32;;;;;;;50.92;23.67;;;4.30;99.90;;;;;;4977824;28;20496;-74
2022/01/26 01:55:03;;;;;;;42.60;20.98;;;4.30;99.90;;;;;;4978098;28;20026;-75
2022/01/26 01:57:28;;;;;;;;;;;4.10;99.90;;;;;;4960643;28;20480;-73
2022/01/26 01:59:54;;;;;;;39.90;19.83;;;4.10;99.90;;;;;;4960399;28;19906;-74
2022/01/26 02:02:20;;;;;;;43.67;20.00;;;4.00;99.90;;;;;;4977714;28;20023;-75
2022/01/26 02:04:45;;;;;;;44.40;19.55;;;4.00;99.90;;;;;;4978242;28;20106;-74
2022/01/26 02:07:12;;;;;;;37.63;18.30;;;4.10;99.90;;;;;;4977573;28;20046;-74
2022/01/26 02:09:38;;;;;;;41.80;19.10;;;4.10;99.90;;;;;;4977811;28;20030;-74
2022/01/26 02:12:14;;;;;;;44.67;20.92;;;4.10;99.90;;;;;;4977960;28;20393;-75
2022/01/26 02:14:44;;;;;;;42.22;19.50;;;3.90;99.90;;;;;;4977824;28;20436;-75
2022/01/26 02:50:12;;;;;;;48.88;22.25;;;3.80;99.90;;;;;;4976084;28;20097;-75
2022/01/26 02:55:20;;;;;;;53.25;23.30;;;3.80;99.90;;;;;;4977055;28;20030;-75
2022/01/26 03:00:29;;;;;;;46.95;21.63;;;3.90;99.90;;;;;;4976665;28;20266;-74
2022/01/26 03:03:10;;;;;;;52.28;23.75;;;3.90;99.90;;;;;;4976831;28;20481;-74
2022/01/26 03:05:42;;;;;;;54.00;26.27;;;3.90;99.90;;;;;;4959036;28;20035;-75
2022/01/26 03:08:08;;;;;;;54.88;25.13;;;3.70;99.90;;;;;;4976177;28;20105;-74
2022/01/26 03:13:06;;;;;;;48.10;22.63;;;3.90;99.90;;;;;;4976904;28;20472;-74
2022/01/26 03:15:38;;;;;;;45.10;21.05;;;4.00;99.90;;;;;;4976447;28;20030;-75
2022/01/26 03:20:34;;;;;;;54.00;24.42;;;3.90;99.90;;;;;;4976496;28;20022;-75
2022/01/26 03:28:42;;;;;;;45.15;20.63;;;4.00;99.90;;;;;;4976099;28;20113;-75
2022/01/26 03:33:54;;;;;;;46.35;22.00;;;4.20;99.90;;;;;;4976813;28;20070;-74
2022/01/26 03:36:20;;;;;;;48.75;22.38;;;4.00;99.90;;;;;;4975896;28;20077;-75
2022/01/26 03:38:55;;;;;;;37.60;18.48;;;3.50;99.90;;;;;;4975978;28;20023;-74
2022/01/26 03:43:49;;;;;;;39.85;19.17;;;3.40;99.90;;;;;;4976695;28;20624;-74
2022/01/26 03:46:15;;;;;;;43.28;20.30;;;3.30;99.90;;;;;;4975808;28;20073;-75
2022/01/26 03:48:40;;;;;;;38.65;20.13;;;3.30;99.90;;;;;;4976395;28;20030;-73
2022/01/26 03:51:06;;;;;;;46.08;19.80;;;3.30;99.90;;;;;;4975745;28;20081;-74
2022/01/26 03:53:32;;;;;;;38.08;18.05;;;3.20;99.90;;;;;;4975581;28;20023;-74
2022/01/26 03:55:58;;;;;;;40.15;18.65;;;3.10;99.90;;;;;;4975518;28;20081;-75
2022/01/26 03:58:23;;;;;;;43.70;20.17;;;3.20;99.90;;;;;;4975865;28;20019;-74
2022/01/26 04:00:49;;;;;;;42.05;19.17;;;3.20;99.90;;;;;;4975486;28;20062;-74
2022/01/26 04:03:14;;;;;;;49.15;23.23;;;3.10;99.90;;;;;;4975351;28;20035;-74
2022/01/26 04:05:40;;;;;;;46.17;21.77;;;3.10;99.90;;;;;;4975724;28;20031;-75
2022/01/26 04:08:08;;;;;;;45.17;21.80;;;2.90;99.90;;;;;;4974967;28;20432;-75
2022/01/26 04:11:02;;;;;;;47.92;23.30;;;3.00;99.90;;;;;;4975586;28;20081;-74
2022/01/26 04:13:28;;;;;;;49.50;22.50;;;3.10;99.90;;;;;;4975257;28;20105;-74
2022/01/26 04:15:54;;;;;;;36.15;18.55;;;3.10;99.90;;;;;;4975243;28;20105;-75
2022/01/26 04:18:25;;;;;;;37.00;17.17;;;3.20;99.90;;;;;;4957762;28;20050;-74
2022/01/26 04:20:55;;;;;;;37.78;18.73;;;3.20;99.90;;;;;;4957608;28;20023;-74
2022/01/26 04:23:30;;;;;;;35.97;17.52;;;3.10;99.90;;;;;;4957596;28;20023;-74
2022/01/26 04:25:56;;;;;;;36.80;18.42;;;3.20;99.90;;;;;;4957474;28;20114;-74
2022/01/26 04:28:29;;;;;;;33.05;16.95;;;3.20;99.90;;;;;;4975037;28;20065;-74
2022/01/26 04:30:54;;;;;;;38.67;19.30;;;3.20;99.90;;;;;;4975321;28;20076;-75
2022/01/26 04:33:20;;;;;;;32.80;16.45;;;3.10;99.90;;;;;;4957542;28;20026;-74
2022/01/26 04:35:47;;;;;;;33.38;16.23;;;2.90;99.90;;;;;;4975140;28;20027;-74
2022/01/26 04:40:50;;;;;;;33.17;16.83;;;3.00;99.90;;;;;;4975394;28;20031;-74
2022/01/26 04:43:20;;;;;;;35.75;17.38;;;3.20;99.90;;;;;;4957221;28;20444;-75
2022/01/26 04:45:46;;;;;;;36.55;18.13;;;3.20;99.90;;;;;;4975162;28;20026;-74
2022/01/26 04:48:12;;;;;;;35.97;17.42;;;3.10;99.90;;;;;;4975065;28;20054;-75
2022/01/26 04:50:37;;;;;;;29.90;15.98;;;3.00;99.90;;;;;;4975021;28;20042;-74
2022/01/26 04:53:03;;;;;;;34.97;16.83;;;3.00;99.90;;;;;;4975204;28;20081;-74
2022/01/26 04:55:29;;;;;;;37.85;18.33;;;3.00;99.90;;;;;;4974866;28;20436;-74
2022/01/26 04:57:54;;;;;;;39.25;17.70;;;2.90;99.90;;;;;;4974405;28;20041;-74
2022/01/26 05:00:20;;;;;;;37.42;16.83;;;2.90;99.90;;;;;;4974874;28;20054;-76
2022/01/26 05:02:46;;;;;;;33.65;16.75;;;2.80;99.90;;;;;;4956969;28;20050;-74
2022/01/26 05:05:12;;;;;;;36.50;16.02;;;2.70;99.90;;;;;;4974810;28;20030;-74
2022/01/26 05:07:38;;;;;;;32.30;16.98;;;2.80;99.90;;;;;;4974360;28;20130;-74
2022/01/26 05:10:04;;;;;;;34.38;15.82;;;2.80;99.90;;;;;;4974621;28;20114;-74
2022/01/26 05:12:30;;;;;;;34.28;15.55;;;2.70;99.90;;;;;;4973956;28;20015;-74
2022/01/26 05:14:56;;;;;;;35.38;17.65;;;2.70;99.90;;;;;;4974405;28;20479;-74
2022/01/26 05:17:23;;;;;;;39.10;17.38;;;2.70;99.90;;;;;;4974385;28;20026;-74
2022/01/26 05:19:54;;;;;;;35.30;17.75;;;2.70;99.90;;;;;;4974339;28;20370;-74
2022/01/26 05:22:19;;;;;;;36.60;16.63;;;2.80;99.90;;;;;;4974342;28;20389;-74
2022/01/26 05:24:45;;;;;;;36.95;16.20;;;2.80;99.90;;;;;;4974544;28;20042;-74
2022/01/26 05:27:11;;;;;;;39.45;17.48;;;2.90;99.90;;;;;;4974181;28;20023;-76
2022/01/26 05:29:36;;;;;;;44.00;17.85;;;2.80;99.90;;;;;;4974475;28;20023;-74
2022/01/26 05:32:02;;;;;;;36.65;16.05;;;2.90;99.90;;;;;;4974255;28;20098;-74
2022/01/26 05:34:28;;;;;;;33.53;15.82;;;3.00;99.90;;;;;;4974428;28;20070;-74
2022/01/26 05:36:54;;;;;;;34.92;17.15;;;3.10;99.90;;;;;;4974133;28;20038;-75
2022/01/26 05:39:19;;;;;;;37.00;16.63;;;3.10;99.90;;;;;;4973724;28;20485;-74
2022/01/26 05:41:45;;;;;;;33.45;15.68;;;3.00;99.90;;;;;;4974175;28;20026;-74
2022/01/26 05:44:11;;;;;;;34.63;17.02;;;2.90;99.90;;;;;;4974114;28;20086;-75
2022/01/26 05:46:42;;;;;;;29.90;15.57;;;3.00;99.90;;;;;;4974036;28;20485;-75
2022/01/26 05:49:07;;;;;;;36.60;16.20;;;3.10;99.90;;;;;;4974685;28;20477;-74
2022/01/26 05:51:33;;;;;;;32.17;15.55;;;3.20;99.90;;;;;;4974098;28;20029;-74
2022/01/26 05:54:01;;;;;;;27.75;14.80;;;3.30;99.90;;;;;;4973987;28;20111;-75
2022/01/26 05:56:27;;;;;;;33.28;15.65;;;3.20;99.90;;;;;;4974579;28;20023;-74
2022/01/26 05:58:52;;;;;;;36.67;17.02;;;3.20;99.90;;;;;;4974317;28;20026;-74
2022/01/26 06:01:19;;;;;;;39.38;15.63;;;3.10;99.90;;;;;;4973924;28;20065;-74
2022/01/26 06:03:45;;;;;;;34.15;14.98;;;3.20;99.90;;;;;;4974121;28;20031;-74
2022/01/26 06:06:11;;;;;;;32.67;15.52;;;3.30;99.90;;;;;;4973643;28;20038;-75
2022/01/26 06:08:37;;;;;;;29.80;14.93;;;3.30;99.90;;;;;;4974234;28;20054;-74
2022/01/26 06:11:04;;;;;;;32.00;15.88;;;3.40;99.90;;;;;;4973835;28;20078;-75
2022/01/26 06:13:29;;;;;;;32.35;15.32;;;3.20;99.90;;;;;;4974074;28;20052;-75
2022/01/26 06:15:55;;;;;;;33.45;16.95;;;3.20;99.90;;;;;;4973850;28;20073;-74
2022/01/26 06:18:21;;;;;;;37.53;16.15;;;3.30;99.90;;;;;;4973872;28;20027;-74
2022/01/26 06:20:48;;;;;;;32.25;14.38;;;3.40;99.90;;;;;;4973771;28;20392;-75
2022/01/26 06:23:14;;;;;;;28.55;13.80;;;3.50;99.90;;;;;;4973801;28;20037;-74
2022/01/26 06:25:40;;;;;;;31.35;15.18;;;3.80;99.90;;;;;;4976320;28;20026;-74
2022/01/26 06:28:10;;;;;;;33.58;15.90;;;3.80;99.90;;;;;;4977223;28;20030;-74
2022/01/26 06:30:36;;;;;;;;;;;3.80;99.90;;;;;;4960054;28;20023;-76
2022/01/26 06:33:02;;;;;;;28.27;14.02;;;3.80;99.90;;;;;;4959756;28;20020;-74
2022/01/26 06:35:28;;;;;;;33.05;15.90;;;3.50;99.90;;;;;;4977637;28;20038;-75
2022/01/26 06:37:54;;;;;;;29.85;14.75;;;3.60;99.90;;;;;;4977000;28;20070;-74
2022/01/26 06:40:20;;;;;;;31.88;14.38;;;3.50;99.90;;;;;;4977011;28;20393;-74
2022/01/26 06:42:56;;;;;;;30.67;14.77;;;3.60;99.90;;;;;;4977285;28;20038;-74
2022/01/26 06:45:25;;;;;;;38.10;16.73;;;3.70;99.90;;;;;;4977251;28;20089;-74
2022/01/26 06:48:00;;;;;;;31.83;15.23;;;3.60;99.90;;;;;;4976961;28;20022;-74
2022/01/26 06:50:26;;;;;;;31.15;16.13;;;3.60;99.90;;;;;;4976866;28;20601;-75
2022/01/26 06:52:52;;;;;;;33.00;14.77;;;3.70;99.90;;;;;;4976759;28;20034;-75
2022/01/26 06:55:19;;;;;;;31.05;14.82;;;3.90;99.90;;;;;;4977052;28;20022;-74
2022/01/26 06:57:45;;;;;;;34.50;16.77;;;3.90;99.90;;;;;;4977314;28;20073;-75
2022/01/26 07:00:12;;;;;;;28.48;14.27;;;3.90;99.90;;;;;;4977205;28;20093;-75
2022/01/26 07:02:39;;;;;;;31.50;14.85;;;3.90;99.90;;;;;;4976556;28;20378;-75
2022/01/26 07:05:11;;;;;;;31.90;14.35;;;3.90;99.90;;;;;;4976490;28;20029;-75
2022/01/26 07:07:39;;;;;;;28.15;13.93;;;4.00;99.90;;;;;;4976569;28;20059;-74
2022/01/26 07:10:06;;;;;;;34.78;16.35;;;4.00;99.90;;;;;;4976818;28;20513;-74
2022/01/26 07:12:33;;;;;;;35.28;15.40;;;3.70;99.90;;;;;;4976342;28;20035;-75
2022/01/26 07:23:11;;;;;;;31.60;14.52;;;3.80;99.90;;;;;;4976326;28;20470;-74
2022/01/26 07:25:37;;;;;;;38.42;16.27;;;3.90;99.90;;;;;;4976513;28;20096;-74
2022/01/26 07:28:05;;;;;;;35.90;17.67;;;3.80;99.90;;;;;;4976130;28;20027;-74
2022/01/26 07:30:32;;;;;;;30.80;15.95;;;3.60;99.90;;;;;;4976407;28;20050;-75
2022/01/26 07:32:57;;;;;;;34.80;16.52;;;3.60;99.90;;;;;;4975785;28;20101;-74
2022/01/26 07:35:23;;;;;;;31.30;16.40;;;3.70;99.90;;;;;;4975708;28;20517;-75
2022/01/26 07:37:50;;;;;;;32.42;15.63;;;3.60;99.90;;;;;;4976281;28;20023;-74
2022/01/26 07:40:16;;;;;;;32.47;15.80;;;3.80;99.90;;;;;;4975993;28;20143;-74
2022/01/26 07:42:42;;;;;;;35.05;16.23;;;3.50;99.90;;;;;;4975885;28;20504;-73
2022/01/26 07:45:10;;;;;;;32.97;15.20;;;3.50;99.90;;;;;;4976023;28;20038;-74
2022/01/26 07:47:37;;;;;;;33.33;16.60;;;3.60;99.90;;;;;;4976001;28;20082;-74
2022/01/26 07:50:08;;;;;;;37.53;17.30;;;3.70;99.90;;;;;;4975767;28;20023;-73
2022/01/26 07:52:39;;;;;;;34.25;16.08;;;3.70;99.90;;;;;;4976241;28;20117;-72
2022/01/26 07:55:11;;;;;;;32.75;15.85;;;3.50;99.90;;;;;;4975978;28;20018;-74
2022/01/26 07:57:37;;;;;;;33.38;17.23;;;3.40;99.90;;;;;;4976247;28;20373;-73
2022/01/26 08:00:05;;;;;;;34.65;16.13;;;3.10;99.90;;;;;;4975455;28;20022;-73
2022/01/26 08:02:30;;;;;;;36.38;17.00;;;3.20;99.90;;;;;;4975452;28;20070;-73
2022/01/26 08:04:57;;;;;;;41.83;17.88;;;3.30;99.90;;;;;;4975768;28;20026;-72
2022/01/26 08:07:23;;;;;;;39.47;16.63;;;3.30;99.90;;;;;;4975169;28;20050;-73
2022/01/26 08:09:48;;;;;;;39.72;17.25;;;3.20;99.90;;;;;;4975211;28;20350;-74
2022/01/26 08:12:15;;;;;;;36.40;16.73;;;2.90;99.90;;;;;;4975863;28;20085;-74
2022/01/26 08:14:42;;;;;;;37.00;15.73;;;3.00;99.90;;;;;;4975361;28;20456;-74
2022/01/26 08:17:08;;;;;;;31.75;15.25;;;3.20;99.90;;;;;;4975117;28;20029;-73
2022/01/26 08:19:35;;;;;;;37.03;17.23;;;3.10;99.90;;;;;;4975047;28;20510;-73
2022/01/26 08:22:01;;;;;;;33.25;16.02;;;3.20;99.90;;;;;;4956947;28;20019;-72
2022/01/26 08:24:28;;;;;;;35.08;17.85;;;3.30;99.90;;;;;;4974344;28;20030;-73
2022/01/26 08:26:57;;;;;;;36.05;17.90;;;3.40;99.90;;;;;;4974017;28;20412;-73
2022/01/26 08:29:39;;;;;;;39.45;17.35;;;3.40;99.90;;;;;;4974252;28;20085;-73
2022/01/26 08:32:05;;;;;;;37.20;16.15;;;3.40;99.90;;;;;;4974833;28;20030;-73
2022/01/26 08:34:31;;;;;;;38.10;17.63;;;3.50;99.90;;;;;;4974935;28;20392;-73
2022/01/26 08:36:56;;;;;;;33.95;16.88;;;3.60;99.90;;;;;;4975201;28;20477;-74
2022/01/26 08:39:22;;;;;;;39.80;17.90;;;3.60;99.90;;;;;;4974973;28;20023;-73
2022/01/26 08:41:48;;;;;;;37.25;16.75;;;3.30;99.90;;;;;;4974786;28;20433;-74
2022/01/26 08:44:14;;;;;;;41.50;18.70;;;3.20;99.90;;;;;;4974880;28;20026;-76
2022/01/26 08:46:39;;;;;;;35.55;16.05;;;3.10;99.90;;;;;;4974658;28;20105;-73
2022/01/26 08:49:05;;;;;;;38.30;18.13;;;3.30;99.90;;;;;;4974483;28;20031;-73
2022/01/26 08:51:31;;;;;;;42.42;17.88;;;3.40;99.90;;;;;;4974975;28;20034;-73
2022/01/26 08:53:57;;;;;;;38.97;19.05;;;3.60;99.90;;;;;;4974604;28;20078;-73
2022/01/26 08:56:23;;;;;;;41.38;18.52;;;3.70;99.90;;;;;;4974585;28;20022;-73
2022/01/26 08:58:48;;;;;;;40.30;18.23;;;3.50;99.90;;;;;;4974480;28;20051;-73
2022/01/26 09:01:14;;;;;;;41.83;18.67;;;3.40;99.90;;;;;;4974602;28;20027;-73
2022/01/26 09:03:39;;;;;;;40.55;17.88;;;3.40;99.90;;;;;;4974514;28;20034;-73
2022/01/26 09:06:07;;;;;;;38.67;17.33;;;3.20;99.90;;;;;;4974607;28;20440;-73
2022/01/26 09:08:34;;;;;;;41.10;18.33;;;3.30;99.90;;;;;;4974290;28;20023;-73
2022/01/26 09:11:01;;;;;;;38.80;18.13;;;3.40;99.90;;;;;;4974731;28;20023;-73
2022/01/26 09:13:30;;;;;;;39.13;18.17;;;3.60;99.90;;;;;;4974863;28;20019;-73
2022/01/26 09:15:56;;;;;;;47.78;20.25;;;3.40;99.90;;;;;;4974411;28;20034;-73
2022/01/26 09:18:33;;;;;;;38.15;16.30;;;3.10;99.90;;;;;;4974377;28;20393;-73
2022/01/26 09:20:59;;;;;;;34.67;16.40;;;3.30;99.90;;;;;;4956652;28;20031;-73
2022/01/26 09:23:24;;;;;;;43.67;19.17;;;3.40;99.90;;;;;;4974619;28;20027;-73
2022/01/26 09:25:50;;;;;;;40.85;18.23;;;3.50;99.90;;;;;;4974303;28;20177;-73
2022/01/26 09:28:16;;;;;;;45.50;19.40;;;3.60;99.90;;;;;;4974210;28;20031;-73
2022/01/26 09:30:41;;;;;;;48.78;19.50;;;3.80;99.90;;;;;;4974315;28;20034;-73
2022/01/26 09:33:07;;;;;;;42.88;18.80;;;4.00;99.90;;;;;;4974373;28;20027;-73
2022/01/26 09:35:32;;;;;;;41.35;18.48;;;4.00;99.90;;;;;;4974218;28;20102;-72
2022/01/26 09:37:58;;;;;;;37.85;18.23;;;3.90;99.90;;;;;;4974192;28;20110;-73
2022/01/26 09:40:24;;;;;;;38.47;17.33;;;3.80;99.90;;;;;;4974463;28;20039;-73
2022/01/26 09:42:51;;;;;;;40.83;17.67;;;3.80;99.90;;;;;;4974321;28;20078;-72
2022/01/26 09:45:18;;;;;;;42.30;18.77;;;3.80;99.90;;;;;;4974168;28;20109;-73
2022/01/26 09:47:44;;;;;;;40.75;20.05;;;3.90;99.90;;;;;;4974340;28;20030;-73
2022/01/26 09:50:10;;;;;;;33.55;18.10;;;3.80;99.90;;;;;;4974093;28;20063;-72
2022/01/26 09:52:41;;;;;;;42.30;19.17;;;3.90;99.90;;;;;;4973964;28;20077;-73
2022/01/26 09:55:09;;;;;;;43.25;20.67;;;3.90;99.90;;;;;;4974381;28;20102;-72
2022/01/26 09:57:36;;;;;;;41.70;19.70;;;3.70;99.90;;;;;;4974224;28;20054;-72
2022/01/26 10:00:04;;;;;;;42.28;18.70;;;3.90;99.90;;;;;;4977158;28;20410;-73
2022/01/26 10:02:31;;;;;;;40.03;17.75;;;3.70;99.90;;;;;;4959976;28;20033;-73
2022/01/26 10:05:07;;;;;;;41.50;18.83;;;3.70;99.90;;;;;;4960220;28;20421;-73
2022/01/26 10:18:22;;;;;;;38.58;18.20;;;4.00;99.90;;;;;;4977455;28;20429;-73
2022/01/26 10:20:52;;;;;;;43.67;18.27;;;4.20;99.90;;;;;;4964711;28;20066;-73
2022/01/26 10:23:24;;;;;;;38.88;18.90;;;4.30;99.90;;;;;;4977665;28;20026;-73
2022/01/26 10:26:06;;;;;;;42.15;20.08;;;4.40;99.90;;;;;;4959968;28;20436;-73
2022/01/26 10:28:46;;;;;;;38.08;18.77;;;4.30;99.90;;;;;;4977194;28;20026;-74
2022/01/26 10:31:24;;;;;;;43.80;18.73;;;4.40;99.90;;;;;;4977247;28;20030;-73
2022/01/26 10:34:19;;;;;;;44.03;18.70;;;4.40;99.90;;;;;;4977697;28;20493;-73
2022/01/26 10:36:59;;;;;;;46.28;20.33;;;4.40;99.90;;;;;;4977600;28;20031;-74
2022/01/26 10:39:34;;;;;;;41.13;19.53;;;4.20;99.90;;;;;;4977758;28;20401;-74
2022/01/26 10:42:04;;;;;;;40.97;20.13;;;4.30;99.90;;;;;;4977408;28;20015;-73
2022/01/26 10:44:34;;;;;;;;;;;4.10;99.90;;;;;;4977767;28;20054;-74
2022/01/26 10:47:03;;;;;;;36.17;18.03;;;4.20;99.90;;;;;;4976990;28;19910;-73
2022/01/26 10:52:25;;;;;;;37.78;18.40;;;4.40;99.90;;;;;;4977449;28;20488;-74
2022/01/26 10:54:51;;;;;;;41.35;19.85;;;4.60;99.90;;;;;;4959120;28;20022;-74
2022/01/26 10:57:18;;;;;;;40.72;20.30;;;4.70;99.90;;;;;;4977229;28;20492;-74
2022/01/26 10:59:48;;;;;;;37.88;18.50;;;4.60;99.90;;;;;;4976733;28;20059;-74
2022/01/26 11:02:21;;;;;;;40.65;19.25;;;4.70;99.90;;;;;;4977032;28;20078;-74
2022/01/26 11:04:47;;;;;;;47.85;21.08;;;4.80;99.90;;;;;;4976974;28;20136;-74
2022/01/26 11:07:14;;;;;;;43.95;22.20;;;4.80;99.90;;;;;;4976343;28;20085;-73
2022/01/26 11:09:43;;;;;;;42.40;19.45;;;4.80;99.90;;;;;;4976169;28;20050;-74
2022/01/26 11:12:11;;;;;;;41.17;19.25;;;4.90;99.90;;;;;;4976227;28;20077;-74
2022/01/26 11:14:41;;;;;;;45.53;19.83;;;5.00;99.90;;;;;;4976409;28;20544;-74
2022/01/26 11:17:07;;;;;;;49.65;20.85;;;5.20;99.90;;;;;;4976727;28;20086;-73
2022/01/26 11:19:40;;;;;;;42.17;20.33;;;5.20;99.90;;;;;;4976608;28;20085;-73
2022/01/26 11:22:08;;;;;;;45.40;21.90;;;5.20;99.90;;;;;;4976337;28;20489;-73
2022/01/26 11:24:46;;;;;;;44.65;20.73;;;5.20;99.90;;;;;;4976072;28;20019;-73
2022/01/26 11:27:13;;;;;;;41.08;19.65;;;5.00;99.90;;;;;;4976166;28;20478;-73
2022/01/26 11:29:45;;;;;;;43.88;20.58;;;5.00;99.90;;;;;;4958795;28;20035;-73
2022/01/26 11:32:19;;;;;;;39.10;19.13;;;5.10;99.90;;;;;;4976471;28;20390;-73
2022/01/26 11:34:49;;;;;;;43.70;21.10;;;5.00;99.90;;;;;;4958316;28;20417;-73
2022/01/26 11:37:17;;;;;;;41.42;19.10;;;5.00;99.90;;;;;;4976023;28;20398;-73
2022/01/26 11:45:25;;;;;;;41.20;20.40;;;4.90;99.90;;;;;;4975404;28;20119;-73
2022/01/26 11:48:23;;;;;;;41.90;20.35;;;4.80;99.90;;;;;;4975715;28;20034;-74
2022/01/26 11:51:01;;;;;;;47.50;20.67;;;4.80;99.90;;;;;;4975876;28;20034;-73
2022/01/26 11:53:28;;;;;;;49.17;21.30;;;5.00;99.90;;;;;;4975995;28;20089;-73
2022/01/26 11:56:03;;;;;;;47.00;21.33;;;5.10;99.90;;;;;;4975976;28;20477;-73
2022/01/26 11:58:34;;;;;;;49.20;22.33;;;5.30;99.90;;;;;;4975731;28;20396;-73
2022/01/26 12:01:16;;;;;;;45.95;19.98;;;5.20;99.90;;;;;;4975411;28;20023;-73
2022/01/26 12:03:56;;;;;;;45.85;20.52;;;5.10;99.90;;;;;;4957894;28;20030;-73
2022/01/26 12:06:29;;;;;;;44.03;20.47;;;5.20;99.90;;;;;;4975754;28;20473;-73
2022/01/26 12:08:58;;;;;;;48.75;22.55;;;5.20;99.90;;;;;;4975806;28;20543;-73
2022/01/26 12:11:28;;;;;;;49.38;21.27;;;5.10;99.90;;;;;;4975693;28;20030;-74
2022/01/26 12:14:03;;;;;;;43.92;23.17;;;5.20;99.90;;;;;;4975647;28;20385;-73
2022/01/26 12:16:42;;;;;;;49.90;22.77;;;5.30;99.90;;;;;;4975611;28;20078;-73
2022/01/26 12:19:26;;;;;;;44.00;21.35;;;5.40;99.90;;;;;;4975622;28;20033;-73
2022/01/26 12:36:29;;;;;;;43.05;21.67;;;5.40;99.90;;;;;;4975349;28;20046;-73
2022/01/26 12:39:01;;;;;;;48.90;22.27;;;5.50;99.90;;;;;;4975242;28;20019;-73
2022/01/26 12:44:06;;;;;;;50.17;24.75;;;5.70;99.90;;;;;;4975091;28;20457;-74
2022/01/26 12:46:33;;;;;;;48.80;22.67;;;5.60;99.90;;;;;;4975378;28;20480;-73
2022/01/26 12:49:10;;;;;;;48.75;23.92;;;5.50;99.90;;;;;;4974702;28;20038;-73
2022/01/26 12:51:54;;;;;;;50.78;24.65;;;5.60;99.90;;;;;;4975044;28;20023;-73
2022/01/26 12:54:20;;;;;;;51.25;23.42;;;5.70;99.90;;;;;;4975204;28;20029;-73
2022/01/26 12:56:47;;;;;;;54.35;26.60;;;5.70;99.90;;;;;;4974704;28;20023;-73
2022/01/26 12:59:16;;;;;;;58.15;28.38;;;5.70;99.90;;;;;;4957300;28;20035;-74
2022/01/26 13:01:43;;;;;;;56.97;27.23;;;5.70;99.90;;;;;;4974552;28;20023;-74
2022/01/26 13:04:16;;;;;;;47.45;25.33;;;5.80;99.90;;;;;;4974993;28;20485;-74
2022/01/26 13:06:46;;;;;;;53.78;26.83;;;5.80;99.90;;;;;;4974384;28;20058;-74
2022/01/26 13:09:17;;;;;;;48.72;24.58;;;5.70;99.90;;;;;;4974573;28;20389;-74
2022/01/26 13:11:45;;;;;;;48.15;24.13;;;5.50;99.90;;;;;;4974382;28;20022;-73
2022/01/26 13:14:23;;;;;;;51.08;23.73;;;5.20;99.90;;;;;;4974558;28;20062;-73
2022/01/26 13:36:25;;;;;;;47.25;24.35;;;5.80;99.90;;;;;;4964956;28;20062;-74
2022/01/26 14:03:48;;;;;;;46.83;27.42;;;6.00;99.90;;;;;;5152667;27;20293;-76
2022/01/26 14:06:14;;;;;;;44.75;24.55;;;6.50;99.90;;;;;;5131466;27;20027;-76
2022/01/26 14:08:41;;;;;;;50.75;25.73;;;6.40;99.90;;;;;;5131906;27;20019;-76
2022/01/26 14:11:07;;;;;;;52.13;24.52;;;6.30;99.90;;;;;;5130006;28;20028;-76
2022/01/26 14:13:35;;;;;;;44.88;23.58;;;6.20;99.90;;;;;;5131619;27;20035;-76
2022/01/26 14:16:01;;;;;;;44.80;22.33;;;6.10;99.90;;;;;;5131571;27;20011;-76
2022/01/26 14:18:42;;;;;;;51.30;26.00;;;6.00;99.90;;;;;;5131201;27;20020;-76
2022/01/26 14:23:57;;;;;;;87.25;46.67;;;6.10;99.90;;;;;;5131362;28;20491;-76
2022/01/26 14:26:26;;;;;;;67.47;34.13;;;6.10;99.90;;;;;;5131328;27;20361;-76
2022/01/26 14:28:52;;;;;;;45.15;23.15;;;6.10;99.90;;;;;;5130963;27;20035;-76
2022/01/26 15:30:07;;;;;;;40.90;21.35;;;5.80;99.90;;;;;;5116180;28;20617;-75
2022/01/26 15:35:25;;;;;;;45.08;21.67;;;5.90;99.90;;;;;;5116877;28;20414;-76
2022/01/26 16:44:19;;;;;;;46.17;24.50;;;5.10;99.90;;;;;;5115139;28;20031;-76
2022/01/26 17:12:04;;;;;;;45.92;23.58;;;4.70;99.90;;;;;;5113897;28;20157;-75
2022/01/26 18:16:33;;;;;;;;;;;4.90;99.90;;;;;;5113586;28;20068;-75
2022/01/26 18:51:27;;;;;;;51.90;26.92;;;4.90;99.90;;;;;;5116882;28;20034;-76
2022/01/26 18:53:52;;;;;;;50.17;26.50;;;5.00;99.90;;;;;;5116752;28;20028;-76
2022/01/26 18:56:18;;;;;;;55.00;26.80;;;4.90;99.90;;;;;;5116736;28;20076;-76
2022/01/26 18:58:44;;;;;;;52.63;27.60;;;5.00;99.90;;;;;;5116999;28;20018;-75
2022/01/26 19:01:10;;;;;;;47.38;27.38;;;5.00;99.90;;;;;;5116954;28;20112;-76
2022/01/26 19:03:36;;;;;;;56.03;30.42;;;5.10;99.90;;;;;;5116501;28;20170;-76
2022/01/26 19:06:02;;;;;;;48.03;26.45;;;5.10;99.90;;;;;;5115371;28;20019;-76
2022/01/26 19:08:30;;;;;;;57.85;26.05;;;5.20;99.90;;;;;;5116593;28;20511;-76
2022/01/26 19:10:56;;;;;;;47.13;24.17;;;5.10;99.90;;;;;;5116564;28;20459;-75
2022/01/26 19:13:27;;;;;;;42.72;23.42;;;5.20;99.90;;;;;;5116476;28;20132;-75
2022/01/26 19:15:57;;;;;;;45.35;23.60;;;5.10;99.90;;;;;;5116487;27;20055;-75
2022/01/26 19:18:36;;;;;;;54.00;26.38;;;5.00;99.90;;;;;;5116431;28;20548;-75
2022/01/26 19:21:13;;;;;;;51.25;28.00;;;4.90;99.90;;;;;;5116402;28;20073;-75
2022/01/26 19:23:57;;;;;;;52.85;25.17;;;4.90;99.90;;;;;;5116626;27;20353;-75
2022/01/26 19:26:29;;;;;;;59.72;33.50;;;4.90;99.90;;;;;;5116545;28;20103;-75
2022/01/26 19:29:04;;;;;;;43.30;23.25;;;4.90;99.90;;;;;;5116492;28;20042;-76
2022/01/26 19:32:03;;;;;;;45.60;23.08;;;5.00;99.90;;;;;;5116417;28;20034;-76
2022/01/26 19:45:56;;;;;;;71.47;33.63;;;5.00;99.90;;;;;;5115844;28;20365;-76
2022/01/26 19:50:57;;;;;;;63.45;32.03;;;5.10;99.90;;;;;;5115732;28;20031;-75
2022/01/26 19:53:23;;;;;;;56.58;30.45;;;5.00;99.90;;;;;;5115663;28;20031;-75
2022/01/26 19:55:49;;;;;;;53.38;27.10;;;5.10;99.90;;;;;;5115725;28;20035;-76
2022/01/26 19:58:14;;;;;;;50.42;27.48;;;5.10;99.90;;;;;;5115653;28;20027;-75
2022/01/26 20:00:46;;;;;;;58.38;33.70;;;5.00;99.90;;;;;;5115842;28;20030;-76
2022/01/26 20:03:16;;;;;;;58.72;31.60;;;5.00;99.90;;;;;;5115324;28;20039;-75
2022/01/26 20:05:43;;;;;;;50.50;30.33;;;5.00;99.90;;;;;;5115808;28;20023;-75